Time;durP1;ratioP1;P1;durP2;ratioP2;P2;SDS_P1;SDS_P2;PMS_P1;PMS_P2;Temp;Humidity;BMP_temperature;BMP_pressure;BME280_temperature;BME280_humidity;BME280_pressure;Samples;Min_cycle;Max_cycle;Signal;HPM_P1;HPM_P2
2023/02/02 00:00:18;;;;;;;17.98;4.55;;;3.20;99.90;;;;;;6225616;23;20496;-84
2023/02/02 00:03:09;;;;;;;12.85;4.25;;;3.20;99.90;;;;;;6247470;23;20034;-87
2023/02/02 00:05:56;;;;;;;15.45;3.72;;;3.20;99.90;;;;;;6245462;23;20035;-84
2023/02/02 00:08:43;;;;;;;12.40;3.80;;;3.30;99.90;;;;;;6225489;23;20285;-85
2023/02/02 00:11:31;;;;;;;16.55;4.32;;;3.30;99.90;;;;;;6245612;23;20023;-85
2023/02/02 00:14:18;;;;;;;13.93;4.25;;;3.30;99.90;;;;;;6225280;23;20102;-86
2023/02/02 00:17:10;;;;;;;11.00;3.40;;;3.30;99.90;;;;;;6201542;23;20036;-85
2023/02/02 00:19:57;;;;;;;12.73;3.20;;;3.30;97.70;;;;;;6215185;23;20025;-85
2023/02/02 00:22:44;;;;;;;16.48;3.50;;;3.30;60.90;;;;;;6196703;23;20236;-85
2023/02/02 00:25:31;;;;;;;15.68;3.88;;;3.30;31.80;;;;;;6216519;23;20020;-85
2023/02/02 00:28:20;;;;;;;12.10;3.67;;;3.40;6.70;;;;;;6215371;23;20083;-87
2023/02/02 00:31:08;;;;;;;12.80;3.92;;;3.40;1.00;;;;;;6216393;23;20032;-86
2023/02/02 00:33:58;;;;;;;11.10;4.53;;;3.30;1.00;;;;;;6213587;23;20029;-85
2023/02/02 00:36:47;;;;;;;11.45;3.60;;;3.30;1.00;;;;;;6215443;23;20020;-86
2023/02/02 00:39:34;;;;;;;8.38;3.38;;;3.30;5.30;;;;;;6214546;23;20442;-88
2023/02/02 00:42:21;;;;;;;12.13;4.00;;;3.30;43.40;;;;;;6215581;23;20095;-88
2023/02/02 00:45:15;;;;;;;8.63;3.20;;;3.20;99.70;;;;;;6218143;23;20095;-86
2023/02/02 00:48:05;;;;;;;15.68;3.53;;;3.20;99.90;;;;;;6217319;23;20423;-85
2023/02/02 00:50:52;;;;;;;9.55;3.00;;;3.20;99.90;;;;;;6216443;23;20162;-86
2023/02/02 00:53:42;;;;;;;10.10;3.50;;;3.20;99.90;;;;;;6219585;23;20048;-85
2023/02/02 00:56:29;;;;;;;12.43;3.30;;;3.20;99.90;;;;;;6220019;23;20035;-89
2023/02/02 00:59:16;;;;;;;13.00;3.50;;;3.20;99.90;;;;;;6218943;23;20035;-87
2023/02/02 01:02:10;;;;;;;11.82;3.63;;;3.10;99.90;;;;;;6218430;23;20024;-87
2023/02/02 01:04:58;;;;;;;13.00;3.30;;;3.10;99.90;;;;;;6230621;23;20127;-88
2023/02/02 01:07:46;;;;;;;10.85;3.70;;;3.10;1.00;;;;;;6225131;23;20151;-87
2023/02/02 01:10:33;;;;;;;14.82;3.55;;;3.10;1.00;;;;;;6222002;23;20031;-88
2023/02/02 01:13:21;;;;;;;13.50;3.30;;;3.10;1.00;;;;;;6224975;23;20108;-86
2023/02/02 01:16:09;;;;;;;10.32;3.47;;;3.10;1.00;;;;;;6235349;23;20087;-89
2023/02/02 01:18:56;;;;;;;14.05;4.10;;;3.10;28.60;;;;;;6251593;23;20031;-86
2023/02/02 01:21:44;;;;;;;7.28;3.20;;;3.10;80.50;;;;;;6250996;23;20099;-90
2023/02/02 01:24:31;;;;;;;14.93;3.95;;;3.10;99.90;;;;;;6249289;23;20048;-87
2023/02/02 01:27:21;;;;;;;15.80;3.80;;;3.10;99.90;;;;;;6246905;23;20028;-86
2023/02/02 01:30:09;;;;;;;15.57;3.88;;;3.10;99.90;;;;;;6247529;23;20059;-86
2023/02/02 01:32:58;;;;;;;12.70;3.20;;;3.00;1.00;;;;;;6228318;23;20328;-85
2023/02/02 01:35:51;;;;;;;15.88;3.33;;;3.00;99.90;;;;;;6227888;22;20107;-87
2023/02/02 01:38:39;;;;;;;14.65;3.97;;;2.90;99.90;;;;;;6226951;23;20509;-86
2023/02/02 01:41:29;;;;;;;16.90;4.13;;;2.90;1.00;;;;;;6244562;23;20031;-87
2023/02/02 01:44:56;;;;;;;10.18;3.63;;;2.90;99.90;;;;;;6245904;23;20098;-88
2023/02/02 01:47:56;;;;;;;11.27;3.50;;;2.90;1.00;;;;;;6247278;23;20059;-89
2023/02/02 01:50:46;;;;;;;16.63;4.13;;;2.90;99.90;;;;;;6245826;23;20028;-87
2023/02/02 01:53:33;;;;;;;11.95;3.25;;;2.90;1.00;;;;;;6246987;23;20099;-84
2023/02/02 01:56:29;;;;;;;21.00;3.85;;;2.90;1.00;;;;;;6246029;23;20438;-89
2023/02/02 01:59:19;;;;;;;11.40;4.20;;;3.00;99.90;;;;;;6246432;23;20106;-88
2023/02/02 02:02:09;;;;;;;14.73;3.42;;;3.00;1.00;;;;;;6224702;23;20109;-89
2023/02/02 02:05:00;;;;;;;15.43;3.40;;;3.00;91.50;;;;;;6227086;23;20092;-88
2023/02/02 02:07:51;;;;;;;17.50;3.60;;;3.10;20.10;;;;;;6228863;23;20107;-87
2023/02/02 02:10:39;;;;;;;11.65;3.25;;;3.00;84.00;;;;;;6228195;23;20034;-88
2023/02/02 02:17:23;;;;;;;14.20;3.05;;;3.20;1.00;;;;;;6247055;23;20024;-88
2023/02/02 02:27:27;;;;;;;14.27;3.92;;;3.20;11.50;;;;;;6249837;23;20471;-88
2023/02/02 02:30:20;;;;;;;10.63;2.55;;;3.20;1.00;;;;;;6225863;23;20113;-88
2023/02/02 02:33:26;;;;;;;11.75;3.33;;;3.20;1.00;;;;;;6248886;23;20066;-89
2023/02/02 02:36:18;;;;;;;13.63;3.10;;;3.20;99.90;;;;;;6226304;23;20024;-91
2023/02/02 02:39:16;;;;;;;8.20;2.58;;;3.20;99.90;;;;;;6228517;23;20416;-88
2023/02/02 02:42:10;;;;;;;8.15;3.53;;;3.30;99.90;;;;;;6250378;23;20025;-88
2023/02/02 02:45:01;;;;;;;7.47;2.67;;;3.30;99.90;;;;;;6248451;23;20020;-87
2023/02/02 02:47:50;;;;;;;8.48;2.47;;;3.40;99.90;;;;;;6249975;23;20048;-90
2023/02/02 02:50:39;;;;;;;9.98;2.92;;;3.40;7.00;;;;;;6249835;23;20032;-89
2023/02/02 02:53:29;;;;;;;12.90;3.28;;;3.40;1.00;;;;;;6253111;23;20031;-88
2023/02/02 02:56:30;;;;;;;9.63;2.92;;;3.40;1.00;;;;;;6250779;23;20042;-85
2023/02/02 02:59:32;;;;;;;10.97;2.70;;;3.40;1.00;;;;;;6247701;23;20327;-86
2023/02/02 03:02:32;;;;;;;5.97;2.37;;;3.40;99.90;;;;;;6249223;23;20086;-90
2023/02/02 03:05:27;;;;;;;3.92;1.70;;;3.50;99.90;;;;;;6246462;23;20084;-86
2023/02/02 03:08:31;;;;;;;7.20;1.90;;;3.60;99.90;;;;;;6250048;22;20059;-88
2023/02/02 03:11:19;;;;;;;6.63;2.28;;;3.70;1.00;;;;;;6246567;23;20056;-87
2023/02/02 03:14:08;;;;;;;6.22;2.03;;;3.70;1.00;;;;;;6250328;22;20039;-86
2023/02/02 03:16:55;;;;;;;6.97;1.65;;;3.80;99.90;;;;;;6247742;23;20113;-85
2023/02/02 03:19:45;;;;;;;4.20;1.75;;;3.80;99.90;;;;;;6248361;23;20028;-87
2023/02/02 03:22:32;;;;;;;5.63;2.15;;;3.80;99.90;;;;;;6246046;23;20055;-87
2023/02/02 03:25:19;;;;;;;5.03;2.00;;;3.80;47.40;;;;;;6224664;23;20024;-87
2023/02/02 03:28:06;;;;;;;8.10;2.03;;;3.80;1.00;;;;;;6248879;23;20124;-86
2023/02/02 03:30:54;;;;;;;6.53;2.05;;;3.80;1.00;;;;;;6246819;23;20024;-85
2023/02/02 03:33:45;;;;;;;6.25;2.58;;;3.80;1.00;;;;;;6225320;23;20050;-87
2023/02/02 03:36:32;;;;;;;7.20;2.03;;;3.80;1.00;;;;;;6246791;23;20229;-86
2023/02/02 03:39:19;;;;;;;6.90;2.65;;;3.80;1.00;;;;;;6247991;23;20040;-85
2023/02/02 03:42:06;;;;;;;6.95;1.90;;;3.80;1.00;;;;;;6249107;23;20056;-87
2023/02/02 03:44:53;;;;;;;10.27;2.28;;;3.80;1.00;;;;;;6226275;23;20095;-84
2023/02/02 03:47:41;;;;;;;11.23;2.75;;;3.80;1.00;;;;;;6248219;23;20028;-87
2023/02/02 03:50:28;;;;;;;8.63;2.65;;;3.80;1.00;;;;;;6250364;22;20028;-86
2023/02/02 03:53:15;;;;;;;4.75;2.20;;;3.80;1.00;;;;;;6246973;23;20024;-87
2023/02/02 03:56:03;;;;;;;6.85;2.35;;;3.80;1.00;;;;;;6247352;23;20032;-89
2023/02/02 03:58:50;;;;;;;9.48;2.38;;;3.80;1.00;;;;;;6248525;23;20048;-87
2023/02/02 04:01:37;;;;;;;7.43;2.33;;;3.90;1.00;;;;;;6247638;23;20078;-88
2023/02/02 04:04:25;;;;;;;6.63;2.05;;;3.80;1.00;;;;;;6249873;23;20320;-84
2023/02/02 04:07:12;;;;;;;11.35;2.53;;;3.80;1.00;;;;;;6247257;23;20094;-87
2023/02/02 04:09:59;;;;;;;6.32;1.98;;;3.80;1.00;;;;;;6224984;23;20028;-84
2023/02/02 04:12:46;;;;;;;5.65;2.08;;;3.90;1.00;;;;;;6246834;23;20028;-86
2023/02/02 04:15:34;;;;;;;7.40;2.50;;;3.90;1.00;;;;;;6226715;23;20087;-88
2023/02/02 04:18:22;;;;;;;5.22;2.17;;;3.90;1.00;;;;;;6249210;23;20032;-85
2023/02/02 04:21:11;;;;;;;7.22;2.03;;;3.90;1.00;;;;;;6247908;23;20028;-85
2023/02/02 04:23:59;;;;;;;7.78;2.20;;;3.80;1.00;;;;;;6224918;23;20021;-87
2023/02/02 04:26:46;;;;;;;5.75;2.13;;;3.80;1.00;;;;;;6247935;23;20020;-87
2023/02/02 04:29:33;;;;;;;5.60;2.05;;;3.80;1.00;;;;;;6248949;23;20020;-86
2023/02/02 04:32:26;;;;;;;10.25;2.78;;;3.80;1.00;;;;;;6248899;23;20049;-88
2023/02/02 04:35:13;;;;;;;12.23;2.60;;;3.70;6.70;;;;;;6226451;23;20095;-90
2023/02/02 04:38:00;;;;;;;4.95;2.30;;;3.70;56.40;;;;;;6249553;23;20354;-84
2023/02/02 04:40:48;;;;;;;10.32;2.10;;;3.70;99.90;;;;;;6246965;23;20028;-90
2023/02/02 04:43:37;;;;;;;10.05;2.53;;;3.70;99.90;;;;;;6222724;23;20028;-90
2023/02/02 04:46:26;;;;;;;6.13;2.38;;;3.70;99.90;;;;;;6227364;23;20032;-86
2023/02/02 04:49:14;;;;;;;4.93;2.05;;;3.70;99.90;;;;;;6248853;23;20083;-87
2023/02/02 04:52:03;;;;;;;6.00;2.10;;;3.80;99.90;;;;;;6245998;23;20102;-87
2023/02/02 04:54:51;;;;;;;12.10;2.40;;;3.90;99.90;;;;;;6247674;23;20459;-89
2023/02/02 04:57:38;;;;;;;9.60;2.25;;;3.90;99.90;;;;;;6247974;23;20055;-89
2023/02/02 05:00:25;;;;;;;5.85;2.38;;;3.80;99.90;;;;;;6247824;23;20060;-88
2023/02/02 05:07:13;;;;;;;4.57;2.13;;;3.90;99.90;;;;;;6249373;22;20004;-89
2023/02/02 05:10:05;;;;;;;9.07;2.30;;;4.00;99.90;;;;;;6225933;23;20028;-88
2023/02/02 05:12:53;;;;;;;5.55;2.35;;;4.00;99.90;;;;;;6246755;23;20103;-87
2023/02/02 05:15:41;;;;;;;8.95;2.15;;;4.00;44.60;;;;;;6249384;23;20035;-88
2023/02/02 05:18:30;;;;;;;8.50;2.08;;;4.00;1.00;;;;;;6249863;23;20427;-88
2023/02/02 05:21:18;;;;;;;7.88;2.83;;;4.00;1.00;;;;;;6229426;23;20293;-86
2023/02/02 05:24:05;;;;;;;11.23;2.88;;;3.90;1.00;;;;;;6248430;23;20020;-90
2023/02/02 05:26:57;;;;;;;11.32;2.85;;;3.80;27.40;;;;;;6256157;23;20105;-87
2023/02/02 05:29:46;;;;;;;4.93;2.37;;;3.70;99.90;;;;;;6240171;23;20055;-87
2023/02/02 05:32:33;;;;;;;12.85;3.58;;;3.60;99.90;;;;;;6262381;23;20286;-85
2023/02/02 05:35:20;;;;;;;6.07;2.70;;;3.60;1.00;;;;;;6264498;23;20047;-85
2023/02/02 05:38:09;;;;;;;9.27;3.08;;;3.50;19.20;;;;;;6243329;23;20050;-85
2023/02/02 05:40:58;;;;;;;8.18;2.50;;;3.50;99.90;;;;;;6240963;23;20020;-86
2023/02/02 05:43:48;;;;;;;9.63;3.10;;;3.50;99.90;;;;;;6263515;23;20024;-87
2023/02/02 05:46:35;;;;;;;7.88;3.55;;;3.50;99.90;;;;;;6264545;23;20011;-90
2023/02/02 05:49:23;;;;;;;6.25;2.63;;;3.60;99.90;;;;;;6262410;23;20032;-88
2023/02/02 05:52:17;;;;;;;11.80;2.83;;;3.60;99.90;;;;;;6269546;22;20008;-85
2023/02/02 05:55:08;;;;;;;7.25;2.60;;;3.60;99.90;;;;;;6273881;22;20016;-87
2023/02/02 05:57:55;;;;;;;7.57;2.47;;;3.60;99.90;;;;;;6272067;22;20012;-83
2023/02/02 06:00:42;;;;;;;8.32;3.05;;;3.50;1.00;;;;;;6272475;22;20023;-82
2023/02/02 06:03:29;;;;;;;12.07;3.85;;;3.50;1.00;;;;;;6272336;22;20048;-85
2023/02/02 06:06:17;;;;;;;7.20;3.08;;;3.40;1.00;;;;;;6273243;22;20012;-85
2023/02/02 06:09:09;;;;;;;7.63;3.25;;;3.40;99.90;;;;;;6272051;22;20024;-85
2023/02/02 06:11:56;;;;;;;11.02;3.50;;;3.40;99.90;;;;;;6271690;23;20032;-87
2023/02/02 06:14:43;;;;;;;5.38;2.40;;;3.40;99.90;;;;;;6271709;23;20012;-88
2023/02/02 06:17:41;;;;;;;7.07;2.65;;;3.50;99.90;;;;;;6239628;22;20043;-88
2023/02/02 06:20:30;;;;;;;9.90;2.33;;;3.60;99.90;;;;;;6220329;23;20025;-87
2023/02/02 06:23:17;;;;;;;6.57;1.90;;;3.80;99.90;;;;;;6218253;23;20019;-88
2023/02/02 06:26:07;;;;;;;4.38;1.80;;;3.80;99.90;;;;;;6239401;23;20039;-87
2023/02/02 06:28:54;;;;;;;14.98;2.45;;;3.80;92.20;;;;;;6240313;23;20039;-85
2023/02/02 06:31:41;;;;;;;5.82;2.13;;;3.80;66.10;;;;;;6234259;23;20012;-87
2023/02/02 06:34:28;;;;;;;8.63;2.03;;;3.80;81.80;;;;;;6237207;22;20013;-84
2023/02/02 06:37:18;;;;;;;8.07;2.33;;;3.80;99.90;;;;;;6241922;22;20076;-85
2023/02/02 06:40:09;;;;;;;9.95;2.40;;;3.70;99.90;;;;;;6240450;22;20013;-89
2023/02/02 06:43:00;;;;;;;7.05;2.92;;;3.80;99.90;;;;;;6242359;23;20080;-88
2023/02/02 06:45:47;;;;;;;5.95;2.45;;;3.80;1.00;;;;;;6242270;23;20020;-92
2023/02/02 06:48:37;;;;;;;11.90;3.25;;;3.70;99.90;;;;;;6238696;23;20029;-91
2023/02/02 06:51:27;;;;;;;13.10;3.40;;;3.70;99.90;;;;;;6211538;23;20112;-89
2023/02/02 06:54:22;;;;;;;8.00;3.50;;;3.60;99.90;;;;;;6228926;23;20024;-89
2023/02/02 06:57:09;;;;;;;5.93;2.53;;;3.60;99.90;;;;;;6228040;23;20024;-91
2023/02/02 06:59:56;;;;;;;10.10;3.00;;;3.50;15.40;;;;;;6230775;23;20024;-88
2023/02/02 07:02:46;;;;;;;7.15;2.92;;;3.60;99.90;;;;;;6230420;23;20029;-91
2023/02/02 07:05:39;;;;;;;5.57;3.05;;;3.60;99.90;;;;;;6209489;23;20043;-91
2023/02/02 07:08:33;;;;;;;7.05;2.75;;;3.60;1.00;;;;;;6229661;23;20094;-91
2023/02/02 07:25:04;;;;;;;;;;;3.60;84.30;;;;;;6247243;23;20097;-89
2023/02/02 07:28:08;;;;;;;11.80;3.30;;;3.50;99.90;;;;;;6232418;23;19973;-86
2023/02/02 07:30:58;;;;;;;12.18;3.85;;;3.50;99.90;;;;;;6248657;23;20054;-87
2023/02/02 07:33:47;;;;;;;9.88;4.03;;;3.40;99.90;;;;;;6225592;23;20028;-83
2023/02/02 07:36:34;;;;;;;11.02;4.38;;;3.50;99.90;;;;;;6246135;23;20031;-84
2023/02/02 07:39:23;;;;;;;11.45;4.63;;;3.40;99.90;;;;;;6244623;23;20028;-83
2023/02/02 07:42:14;;;;;;;12.38;5.43;;;3.40;99.90;;;;;;6224703;23;20031;-87
2023/02/02 07:45:04;;;;;;;10.40;4.93;;;3.40;99.90;;;;;;6225866;23;20100;-85
2023/02/02 07:48:17;;;;;;;20.25;5.10;;;3.40;99.90;;;;;;6245978;23;20047;-85
2023/02/02 07:51:10;;;;;;;12.75;4.55;;;3.40;99.90;;;;;;6245216;23;20123;-86
2023/02/02 07:54:00;;;;;;;;;;;3.40;99.90;;;;;;6226933;23;20131;-85
2023/02/02 07:56:47;;;;;;;14.00;5.18;;;3.40;99.90;;;;;;6246350;23;19920;-85
2023/02/02 07:59:34;;;;;;;13.82;5.53;;;3.30;99.90;;;;;;6224642;23;20031;-85
2023/02/02 08:02:22;;;;;;;11.45;5.35;;;3.30;99.90;;;;;;6223180;23;20036;-85
2023/02/02 08:05:19;;;;;;;;;;;;;;;;;;;;;
2023/02/02 08:08:12;;;;;;;11.23;4.93;;;3.40;99.90;;;;;;6248176;22;20420;-83
2023/02/02 08:11:18;;;;;;;13.75;4.90;;;3.40;99.90;;;;;;6245019;23;20028;-85
2023/02/02 08:14:09;;;;;;;9.75;4.45;;;3.40;99.90;;;;;;6245364;23;20509;-85
2023/02/02 08:16:56;;;;;;;11.32;4.40;;;3.50;99.90;;;;;;6245381;23;20024;-84
2023/02/02 08:19:46;;;;;;;9.77;4.07;;;3.50;99.90;;;;;;6225586;23;20039;-84
2023/02/02 08:22:33;;;;;;;13.02;3.95;;;3.50;99.90;;;;;;6247510;22;20109;-85
2023/02/02 08:25:20;;;;;;;10.05;4.38;;;3.60;99.90;;;;;;6248385;23;20035;-85
2023/02/02 08:28:08;;;;;;;12.85;4.50;;;3.70;99.90;;;;;;6245954;23;20420;-86
2023/02/02 08:30:59;;;;;;;14.43;3.80;;;3.80;99.90;;;;;;6246898;23;20450;-85
2023/02/02 08:33:52;;;;;;;10.95;3.97;;;3.80;99.90;;;;;;6225149;23;20099;-84
2023/02/02 08:36:40;;;;;;;;;;;3.90;99.90;;;;;;6248570;23;20052;-85
2023/02/02 08:39:28;;;;;;;9.68;4.15;;;4.00;99.90;;;;;;6208231;23;19919;-84
2023/02/02 08:42:17;;;;;;;8.52;3.55;;;4.00;99.90;;;;;;6231892;23;20031;-85
2023/02/02 08:45:05;;;;;;;14.35;3.67;;;4.10;99.90;;;;;;6235567;23;20028;-86
2023/02/02 08:48:13;;;;;;;12.60;3.97;;;4.00;26.40;;;;;;6259291;23;20020;-84
2023/02/02 08:51:04;;;;;;;7.82;3.63;;;4.00;1.00;;;;;;6269275;23;20032;-85
2023/02/02 08:53:58;;;;;;;8.82;4.03;;;4.00;1.00;;;;;;6267203;22;20055;-85
2023/02/02 08:56:49;;;;;;;11.30;4.13;;;4.00;1.00;;;;;;6241372;23;20035;-86
2023/02/02 08:59:36;;;;;;;10.93;3.38;;;4.00;99.90;;;;;;6260395;23;20027;-85
2023/02/02 09:06:36;;;;;;;10.40;4.47;;;4.00;99.90;;;;;;6175991;23;20308;-86
2023/02/02 09:09:24;;;;;;;14.33;4.63;;;4.00;99.90;;;;;;6228667;23;20027;-87
2023/02/02 09:12:42;;;;;;;11.63;4.45;;;3.90;99.90;;;;;;6233666;23;20387;-88
2023/02/02 09:15:56;;;;;;;;;;;;;;;;;;;;;
2023/02/02 09:19:08;;;;;;;13.63;4.55;;;3.90;99.90;;;;;;6238384;23;20028;-86
2023/02/02 09:22:02;;;;;;;13.77;4.30;;;3.90;99.90;;;;;;6225432;23;20024;-87
2023/02/02 09:24:58;;;;;;;9.30;4.32;;;3.80;99.90;;;;;;6212951;23;20050;-87
2023/02/02 09:28:22;;;;;;;;;;;3.80;1.00;;;;;;6235964;23;20453;-87
2023/02/02 09:31:12;;;;;;;8.60;4.88;;;3.90;1.00;;;;;;6238789;23;19919;-86
2023/02/02 09:34:02;;;;;;;17.33;5.25;;;3.90;1.00;;;;;;6255872;23;20468;-85
2023/02/02 09:37:00;;;;;;;11.95;5.72;;;3.90;6.90;;;;;;6229402;23;20059;-84
2023/02/02 09:39:48;;;;;;;10.27;5.82;;;3.90;82.60;;;;;;6258218;23;20028;-87
2023/02/02 09:47:35;;;;;;;12.65;4.60;;;3.80;99.90;;;;;;6243466;23;20038;-84
2023/02/02 09:54:48;;;;;;;13.95;5.13;;;3.90;99.90;;;;;;6251074;23;20031;-86
2023/02/02 09:57:44;;;;;;;19.75;4.82;;;3.90;99.90;;;;;;6231506;23;20020;-85
2023/02/02 10:01:12;;;;;;;12.55;4.15;;;3.90;99.90;;;;;;6241741;23;20035;-82
2023/02/02 10:04:35;;;;;;;14.02;4.18;;;3.90;99.90;;;;;;6253007;22;20047;-85
2023/02/02 10:08:11;;;;;;;9.77;4.38;;;3.90;99.90;;;;;;6249555;23;20043;-83
2023/02/02 10:11:33;;;;;;;9.32;4.30;;;4.00;99.90;;;;;;6246151;23;20051;-84
2023/02/02 10:15:22;;;;;;;13.38;3.83;;;4.00;99.90;;;;;;6224893;23;20027;-85
2023/02/02 10:18:17;;;;;;;8.18;3.95;;;4.10;99.90;;;;;;6179294;23;20054;-84
2023/02/02 10:21:51;;;;;;;9.00;3.42;;;4.10;99.90;;;;;;6223935;23;20424;-84
2023/02/02 10:24:46;;;;;;;13.02;4.82;;;4.20;99.90;;;;;;6202181;23;20038;-86
2023/02/02 10:27:39;;;;;;;13.80;4.50;;;4.20;99.90;;;;;;6217865;23;20025;-86
2023/02/02 10:30:44;;;;;;;12.10;4.53;;;4.10;99.90;;;;;;6197477;23;20028;-86
2023/02/02 10:33:44;;;;;;;9.38;4.78;;;4.10;99.90;;;;;;6197375;23;20040;-83
2023/02/02 10:36:46;;;;;;;13.88;5.70;;;4.00;99.90;;;;;;6194663;23;20025;-82
2023/02/02 10:39:38;;;;;;;12.70;5.50;;;4.00;99.90;;;;;;6215977;23;20040;-84
2023/02/02 10:46:07;;;;;;;11.68;4.50;;;4.00;99.90;;;;;;6214582;23;20320;-83
2023/02/02 10:49:23;;;;;;;11.52;3.90;;;4.10;99.90;;;;;;6192760;23;20427;-85
2023/02/02 10:52:21;;;;;;;9.32;3.38;;;4.10;99.90;;;;;;6195423;23;20032;-85
2023/02/02 10:59:46;;;;;;;9.43;3.38;;;4.20;99.90;;;;;;6082968;23;20371;-83
2023/02/02 11:03:15;;;;;;;6.20;2.90;;;4.20;99.90;;;;;;6077741;23;20422;-84
2023/02/02 11:10:26;;;;;;;11.43;3.22;;;4.10;99.90;;;;;;6066578;23;20041;-86
2023/02/02 11:14:11;;;;;;;;;;;;;;;;;;;;;
2023/02/02 11:17:41;;;;;;;12.50;4.55;;;4.00;99.90;;;;;;5954815;24;20412;-86
2023/02/02 11:20:59;;;;;;;9.23;4.25;;;4.00;99.90;;;;;;5913282;23;20030;-87
2023/02/02 11:24:34;;;;;;;10.25;3.55;;;3.90;99.90;;;;;;6111199;23;20088;-85
2023/02/02 11:28:35;;;;;;;10.68;3.53;;;3.90;99.90;;;;;;6174767;23;20316;-85
2023/02/02 11:31:46;;;;;;;8.73;3.42;;;3.90;99.90;;;;;;6184426;23;20332;-88
2023/02/02 11:34:52;;;;;;;6.70;3.58;;;4.00;99.90;;;;;;6227605;23;20031;-85
2023/02/02 11:38:20;;;;;;;9.38;3.83;;;4.10;99.90;;;;;;6187765;23;20288;-85
2023/02/02 11:41:34;;;;;;;12.90;3.85;;;4.10;99.90;;;;;;6248834;23;20020;-87
2023/02/02 11:44:27;;;;;;;7.88;3.92;;;4.20;99.90;;;;;;6249693;22;20121;-86
2023/02/02 11:47:24;;;;;;;11.10;3.58;;;4.30;99.90;;;;;;6222597;23;20032;-83
2023/02/02 11:50:27;;;;;;;10.23;3.83;;;4.30;99.90;;;;;;6244391;23;20024;-84
2023/02/02 11:53:32;;;;;;;12.27;3.53;;;4.30;99.90;;;;;;6228666;23;20039;-85
2023/02/02 11:56:27;;;;;;;8.02;3.63;;;4.40;99.90;;;;;;6246241;23;20101;-83
2023/02/02 11:59:35;;;;;;;7.38;3.50;;;4.40;99.90;;;;;;6222035;23;20114;-84
2023/02/02 12:02:36;;;;;;;7.70;3.38;;;4.40;99.90;;;;;;6225586;23;20039;-84
2023/02/02 12:05:42;;;;;;;11.85;3.50;;;4.40;99.90;;;;;;6222704;23;20430;-86
2023/02/02 12:08:30;;;;;;;9.73;3.72;;;4.50;99.90;;;;;;6245547;23;20031;-86
2023/02/02 12:11:51;;;;;;;10.15;3.30;;;4.50;99.90;;;;;;6226760;23;20028;-85
2023/02/02 12:15:18;;;;;;;7.55;3.63;;;4.50;99.90;;;;;;6225666;23;20031;-85
2023/02/02 12:19:08;;;;;;;10.55;3.40;;;4.50;99.90;;;;;;6230615;23;20030;-86
2023/02/02 12:22:40;;;;;;;13.90;4.10;;;4.50;99.90;;;;;;6228339;23;20024;-87
2023/02/02 12:25:45;;;;;;;13.18;3.85;;;4.60;99.90;;;;;;6227513;23;20028;-88
2023/02/02 12:29:08;;;;;;;13.82;3.85;;;4.60;99.90;;;;;;6248496;23;20396;-86
2023/02/02 12:32:15;;;;;;;11.35;3.17;;;4.60;99.90;;;;;;6246496;23;20031;-86
2023/02/02 12:35:29;;;;;;;8.98;3.05;;;4.60;99.90;;;;;;6227111;23;20043;-89
2023/02/02 12:38:39;;;;;;;8.80;3.03;;;4.70;76.20;;;;;;6230124;23;20024;-85
2023/02/02 12:41:54;;;;;;;8.48;3.33;;;4.70;24.80;;;;;;6227657;23;20107;-87
2023/02/02 12:45:08;;;;;;;12.35;2.95;;;4.70;31.20;;;;;;6224318;23;20066;-86
2023/02/02 12:48:51;;;;;;;8.63;3.53;;;4.70;1.00;;;;;;6226678;23;20043;-87
2023/02/02 12:52:11;;;;;;;10.60;3.58;;;4.70;99.90;;;;;;6127843;23;20031;-86
2023/02/02 12:59:28;;;;;;;6.53;3.03;;;4.70;99.90;;;;;;6153389;23;20092;-84
2023/02/02 13:03:12;;;;;;;10.38;2.85;;;4.70;99.90;;;;;;6154894;23;20021;-89
2023/02/02 13:06:45;;;;;;;6.88;2.60;;;4.70;99.90;;;;;;6132933;23;20092;-87
2023/02/02 13:09:47;;;;;;;7.97;2.35;;;4.70;99.90;;;;;;6153049;23;20021;-86
2023/02/02 13:13:16;;;;;;;8.40;2.60;;;4.60;46.50;;;;;;6109502;23;20051;-87
2023/02/02 13:16:17;;;;;;;7.32;3.25;;;4.60;81.50;;;;;;6141218;23;20125;-86
2023/02/02 13:19:18;;;;;;;6.95;2.80;;;4.60;84.40;;;;;;6153891;23;20030;-86
2023/02/02 13:22:42;;;;;;;10.45;3.60;;;4.60;37.30;;;;;;6135799;23;20021;-87
2023/02/02 13:26:14;;;;;;;;;;;;;;;;;;;;;
2023/02/02 13:29:25;;;;;;;8.02;2.95;;;4.60;99.90;;;;;;6181874;23;20125;-83
2023/02/02 13:32:56;;;;;;;;;;;;;;;;;;;;;
2023/02/02 13:35:56;;;;;;;15.32;6.50;;;4.50;1.00;;;;;;6240410;23;20040;-84
2023/02/02 13:38:46;;;;;;;7.47;3.85;;;4.50;1.00;;;;;;6224966;23;20042;-85
2023/02/02 13:41:38;;;;;;;14.20;5.75;;;4.50;99.90;;;;;;6217129;23;20047;-85
2023/02/02 13:44:45;;;;;;;11.80;4.78;;;4.50;1.00;;;;;;6223378;23;20027;-86
2023/02/02 13:48:17;;;;;;;11.82;3.53;;;4.40;1.00;;;;;;6225413;23;20443;-84
2023/02/02 13:56:22;;;;;;;10.60;3.28;;;4.40;99.90;;;;;;6061957;23;20110;-84
2023/02/02 13:59:47;;;;;;;8.23;3.15;;;4.50;99.90;;;;;;5988609;23;20039;-82
2023/02/02 14:03:08;;;;;;;7.57;2.45;;;4.50;50.20;;;;;;6038647;23;20029;-86
2023/02/02 14:07:09;;;;;;;9.88;3.25;;;4.50;1.00;;;;;;6202931;23;20339;-85
2023/02/02 14:10:40;;;;;;;7.88;2.83;;;4.60;1.00;;;;;;6246637;23;20024;-84
2023/02/02 14:17:37;;;;;;;9.50;2.80;;;4.60;99.90;;;;;;6245386;23;20024;-84
2023/02/02 14:20:47;;;;;;;8.90;3.22;;;4.60;99.90;;;;;;6226587;23;20059;-85
2023/02/02 14:23:55;;;;;;;8.82;3.67;;;4.60;1.00;;;;;;6245903;23;20028;-86
2023/02/02 14:27:07;;;;;;;14.25;3.60;;;4.70;99.90;;;;;;6226877;23;20070;-84
2023/02/02 14:30:12;;;;;;;;;;;;;;;;;;;;;
2023/02/02 14:36:37;;;;;;;11.73;4.35;;;4.70;99.90;;;;;;6247317;23;20413;-84
2023/02/02 14:39:39;;;;;;;13.85;3.58;;;4.70;76.90;;;;;;6248860;22;20031;-84
2023/02/02 14:47:27;;;;;;;11.52;3.47;;;4.90;99.90;;;;;;6245141;23;20024;-89
2023/02/02 14:50:53;;;;;;;6.93;2.67;;;4.90;45.90;;;;;;6244895;23;20028;-84
2023/02/02 14:54:27;;;;;;;9.82;3.05;;;5.00;99.90;;;;;;6229336;23;20039;-84
2023/02/02 14:57:33;;;;;;;9.55;2.47;;;5.00;99.90;;;;;;6224513;23;20028;-83
2023/02/02 15:00:34;;;;;;;8.95;2.70;;;5.00;21.70;;;;;;6226126;23;20059;-84
2023/02/02 15:03:53;;;;;;;13.23;3.35;;;5.00;1.00;;;;;;6180534;23;20127;-83
2023/02/02 15:07:48;;;;;;;;;;;;;;;;;;;;;
2023/02/02 15:10:57;;;;;;;12.88;3.10;;;5.10;99.90;;;;;;6175856;23;20031;-86
2023/02/02 15:15:07;;;;;;;7.40;2.78;;;5.10;99.90;;;;;;6188534;23;20040;-85
2023/02/02 15:23:33;;;;;;;7.82;3.10;;;5.10;1.00;;;;;;6245878;23;20016;-88
2023/02/02 15:26:39;;;;;;;18.05;4.60;;;5.00;1.00;;;;;;6175277;23;20025;-86
2023/02/02 15:30:10;;;;;;;19.08;4.82;;;5.00;1.00;;;;;;6215103;23;20035;-84
2023/02/02 15:33:13;;;;;;;13.65;3.53;;;5.00;1.00;;;;;;6205582;23;20024;-85
2023/02/02 15:40:29;;;;;;;8.55;3.05;;;5.00;99.90;;;;;;6227241;23;20016;-84
2023/02/02 15:47:13;;;;;;;11.75;3.50;;;4.90;99.90;;;;;;6227812;23;20036;-87
2023/02/02 15:50:45;;;;;;;10.35;2.92;;;4.90;99.90;;;;;;6203501;23;20146;-85
2023/02/02 15:58:22;;;;;;;18.02;4.28;;;4.80;1.00;;;;;;6201030;23;20012;-88
2023/02/02 16:01:24;;;;;;;11.38;4.28;;;4.80;1.00;;;;;;6221650;23;20349;-90
2023/02/02 16:04:33;;;;;;;8.13;3.70;;;4.80;1.00;;;;;;6179686;23;20040;-89
2023/02/02 16:07:28;;;;;;;11.57;3.72;;;4.80;1.00;;;;;;6202790;23;20034;-90
2023/02/02 16:10:23;;;;;;;12.55;3.55;;;4.80;1.00;;;;;;6202654;23;20029;-87
2023/02/02 16:14:05;;;;;;;13.60;3.92;;;4.80;1.00;;;;;;6195758;23;20450;-88
2023/02/02 16:16:56;;;;;;;12.88;3.85;;;4.80;1.00;;;;;;6079144;23;20065;-90
2023/02/02 16:19:44;;;;;;;14.52;4.10;;;4.80;15.50;;;;;;6197611;23;20028;-89
2023/02/02 16:22:34;;;;;;;9.05;3.50;;;4.80;57.20;;;;;;6198225;23;20027;-91
2023/02/02 16:25:25;;;;;;;15.05;4.80;;;4.80;78.70;;;;;;6217521;23;20048;-88
2023/02/02 16:28:23;;;;;;;9.60;3.00;;;4.80;99.90;;;;;;6195528;23;20159;-90
2023/02/02 16:31:13;;;;;;;9.77;3.38;;;4.80;99.90;;;;;;6196184;23;20539;-89
2023/02/02 16:34:01;;;;;;;12.38;4.10;;;4.70;99.90;;;;;;6197458;23;20430;-88
2023/02/02 16:37:11;;;;;;;10.80;4.00;;;4.70;99.90;;;;;;6194775;23;20077;-91
2023/02/02 16:40:25;;;;;;;10.77;3.38;;;4.70;99.90;;;;;;6197067;23;20023;-88
2023/02/02 16:43:25;;;;;;;8.23;3.25;;;4.80;99.90;;;;;;6197944;23;20036;-87
2023/02/02 16:46:41;;;;;;;7.72;3.60;;;4.70;99.90;;;;;;6197348;23;20357;-86
2023/02/02 16:49:31;;;;;;;8.52;3.75;;;4.80;99.90;;;;;;6192992;23;20021;-85
2023/02/02 16:52:23;;;;;;;10.38;3.83;;;4.70;99.90;;;;;;6214861;23;20040;-85
2023/02/02 16:55:36;;;;;;;8.82;3.72;;;4.80;99.90;;;;;;6217795;23;20028;-86
2023/02/02 17:01:58;;;;;;;14.48;4.03;;;4.70;99.90;;;;;;6223239;23;20029;-86
2023/02/02 17:04:51;;;;;;;12.50;3.80;;;4.80;92.70;;;;;;6228382;23;20090;-87
2023/02/02 17:07:45;;;;;;;11.43;3.60;;;4.80;60.00;;;;;;6206313;23;20031;-87
2023/02/02 17:10:36;;;;;;;9.50;3.20;;;4.80;45.80;;;;;;6223904;23;20024;-87
2023/02/02 17:13:31;;;;;;;7.47;3.33;;;4.80;14.80;;;;;;6223621;23;20060;-88
2023/02/02 17:16:23;;;;;;;9.77;4.13;;;4.80;1.00;;;;;;6224902;23;20024;-88
2023/02/02 17:19:13;;;;;;;8.40;3.80;;;4.80;1.00;;;;;;6197421;23;20029;-88
2023/02/02 17:22:04;;;;;;;7.18;3.20;;;4.90;1.00;;;;;;6196765;23;20021;-90
2023/02/02 17:24:51;;;;;;;5.10;2.67;;;4.90;1.00;;;;;;6197068;23;20084;-89